createdAt,value
2023-03-31T00:01:14.593Z,6.53
2023-03-31T00:03:44.853Z,6.50
2023-03-31T00:06:18.910Z,6.48
2023-03-31T00:08:52.590Z,6.44
2023-03-31T00:11:23.867Z,6.41
2023-03-31T00:13:51.924Z,6.39
2023-03-31T00:16:20.032Z,6.37
2023-03-31T00:18:51.281Z,6.35
2023-03-31T00:21:25.819Z,6.32
2023-03-31T00:23:59.128Z,6.28
2023-03-31T00:26:28.183Z,6.26
2023-03-31T00:28:57.215Z,6.23
2023-03-31T00:31:27.368Z,6.18
2023-03-31T00:33:56.660Z,6.12
2023-03-31T00:36:28.743Z,6.06
2023-03-31T00:39:02.817Z,5.97
2023-03-31T00:41:31.196Z,5.88
2023-03-31T00:44:14.826Z,5.79
2023-03-31T00:46:45.855Z,5.66
2023-03-31T00:49:47.641Z,5.57
2023-03-31T00:52:21.795Z,5.48
2023-03-31T00:54:55.830Z,5.41
2023-03-31T00:57:26.332Z,5.34
2023-03-31T01:00:00.210Z,5.29
2023-03-31T01:02:29.143Z,5.24
2023-03-31T01:05:02.333Z,5.21
2023-03-31T01:07:41.487Z,5.17
2023-03-31T01:10:11.114Z,5.14
2023-03-31T01:12:44.389Z,5.11
2023-03-31T01:15:12.799Z,5.08
2023-03-31T01:17:45.185Z,5.02
2023-03-31T01:20:55.843Z,4.96
2023-03-31T01:24:05.367Z,4.90
2023-03-31T01:26:42.409Z,4.81
2023-03-31T01:29:44.352Z,4.78
2023-03-31T01:32:38.451Z,4.74
2023-03-31T01:35:38.517Z,4.71
2023-03-31T01:38:34.806Z,4.68
2023-03-31T01:41:40.591Z,4.66
2023-03-31T01:44:21.211Z,4.65
2023-03-31T01:47:22.984Z,4.64
2023-03-31T01:50:06.005Z,4.63
2023-03-31T01:52:56.275Z,4.63
2023-03-31T01:55:41.714Z,4.62
2023-03-31T01:58:16.199Z,4.61
2023-03-31T02:00:57.191Z,4.59
2023-03-31T02:03:33.251Z,4.57
2023-03-31T02:06:10.563Z,4.54
2023-03-31T02:08:48.465Z,4.53
2023-03-31T02:11:17.116Z,4.51
2023-03-31T02:13:47.542Z,4.49
2023-03-31T02:16:24.646Z,4.49
2023-03-31T02:19:02.624Z,4.51
2023-03-31T02:21:34.447Z,4.54
2023-03-31T02:24:11.256Z,4.58
2023-03-31T02:26:52.377Z,4.64
2023-03-31T02:29:21.416Z,4.66
2023-03-31T02:32:12.820Z,4.68
2023-03-31T02:34:40.929Z,4.69
2023-03-31T02:37:08.940Z,4.68
2023-03-31T02:39:41.339Z,4.67
2023-03-31T02:42:09.741Z,4.71
2023-03-31T02:44:40.106Z,4.73
2023-03-31T02:47:12.158Z,4.76
2023-03-31T02:49:48.765Z,4.75
2023-03-31T02:52:23.902Z,4.75
2023-03-31T02:54:55.188Z,4.71
2023-03-31T02:57:58.430Z,4.67
2023-03-31T03:00:49.805Z,4.63
2023-03-31T03:03:52.262Z,4.60
2023-03-31T03:06:44.339Z,4.53
2023-03-31T03:09:30.625Z,4.51
2023-03-31T03:12:04.778Z,4.46
2023-03-31T03:14:49.507Z,4.40
2023-03-31T03:17:26.061Z,4.33
2023-03-31T03:19:57.130Z,4.25
2023-03-31T03:22:25.409Z,4.15
2023-03-31T03:24:53.704Z,4.05
2023-03-31T03:27:24.582Z,3.99
2023-03-31T03:29:52.567Z,3.96
2023-03-31T03:32:20.542Z,3.92
2023-03-31T03:34:48.745Z,3.88
2023-03-31T03:37:16.714Z,3.84
2023-03-31T03:39:44.722Z,3.85
2023-03-31T03:42:12.953Z,3.83
2023-03-31T03:44:40.821Z,3.85
2023-03-31T03:47:08.824Z,3.86
2023-03-31T03:49:36.794Z,3.85
2023-03-31T03:52:04.939Z,3.83
2023-03-31T03:54:33.010Z,3.79
2023-03-31T03:57:01.178Z,3.75
2023-03-31T03:59:29.152Z,3.71
2023-03-31T04:01:57.202Z,3.72
2023-03-31T04:04:25.182Z,3.74
2023-03-31T04:06:53.129Z,3.81
2023-03-31T04:09:21.079Z,3.87
2023-03-31T04:11:49.069Z,3.94
2023-03-31T04:14:17.153Z,3.98
2023-03-31T04:16:47.071Z,4.04
2023-03-31T04:19:17.868Z,4.10
2023-03-31T04:21:46.019Z,4.15
2023-03-31T04:24:21.840Z,4.21
2023-03-31T04:26:59.910Z,4.24
2023-03-31T04:29:28.115Z,4.26
2023-03-31T04:31:59.680Z,4.29
2023-03-31T04:34:35.439Z,4.32
2023-03-31T04:37:04.814Z,4.37
2023-03-31T04:39:32.959Z,4.38
2023-03-31T04:42:01.544Z,4.38
2023-03-31T04:44:29.904Z,4.38
2023-03-31T04:46:59.120Z,4.38
2023-03-31T04:49:27.116Z,4.37
2023-03-31T04:51:55.421Z,4.33
2023-03-31T04:54:23.502Z,4.34
2023-03-31T04:56:51.694Z,4.32
2023-03-31T04:59:19.792Z,4.25
2023-03-31T05:01:48.268Z,4.19
2023-03-31T05:04:16.296Z,4.15
2023-03-31T05:06:44.440Z,4.14
2023-03-31T05:09:12.560Z,4.13
2023-03-31T05:11:40.700Z,4.10
2023-03-31T05:14:08.655Z,4.10
2023-03-31T05:16:37.201Z,4.07
2023-03-31T05:19:05.857Z,4.06
2023-03-31T05:21:34.165Z,4.10
2023-03-31T05:24:02.163Z,4.16
2023-03-31T05:26:31.118Z,4.23
2023-03-31T05:28:59.158Z,4.26
2023-03-31T05:31:27.554Z,4.25
2023-03-31T05:33:55.712Z,4.26
2023-03-31T05:36:23.965Z,4.29
2023-03-31T05:38:52.659Z,4.32
2023-03-31T05:41:21.091Z,4.36
2023-03-31T05:43:49.695Z,4.36
2023-03-31T05:46:18.691Z,4.34
2023-03-31T05:48:47.314Z,4.34
2023-03-31T05:51:15.468Z,4.33
2023-03-31T05:53:44.614Z,4.33
2023-03-31T05:56:13.844Z,4.33
2023-03-31T05:58:42.121Z,4.37
2023-03-31T06:01:13.873Z,4.40
2023-03-31T06:03:50.093Z,4.41
2023-03-31T06:06:18.498Z,4.46
2023-03-31T06:08:47.531Z,4.54
2023-03-31T06:11:19.513Z,4.62
2023-03-31T06:13:48.865Z,4.69
2023-03-31T06:16:17.956Z,4.77
2023-03-31T06:18:46.478Z,4.87
2023-03-31T06:21:17.541Z,4.92
2023-03-31T06:23:46.388Z,4.99
2023-03-31T06:26:17.885Z,5.08
2023-03-31T06:28:47.195Z,5.16
2023-03-31T06:31:18.680Z,5.21
2023-03-31T06:33:48.109Z,5.24
2023-03-31T06:36:19.015Z,5.29
2023-03-31T06:38:48.329Z,5.30
2023-03-31T06:41:21.038Z,5.29
2023-03-31T06:43:50.115Z,5.35
2023-03-31T06:46:18.993Z,5.38
2023-03-31T06:48:47.834Z,5.46
2023-03-31T06:51:16.724Z,5.54
2023-03-31T06:53:45.100Z,5.64
2023-03-31T06:56:13.736Z,5.65
2023-03-31T06:58:42.361Z,5.71
2023-03-31T07:01:12.090Z,5.75
2023-03-31T07:03:40.787Z,5.73
2023-03-31T07:06:09.565Z,5.71
2023-03-31T07:08:37.953Z,5.66
2023-03-31T07:11:06.478Z,5.70
2023-03-31T07:13:35.260Z,5.67
2023-03-31T07:16:05.620Z,5.63
2023-03-31T07:18:35.596Z,5.60
2023-03-31T07:21:08.176Z,5.58
2023-03-31T07:23:38.528Z,5.51
2023-03-31T07:26:07.332Z,5.51
2023-03-31T07:28:36.039Z,5.51
2023-03-31T07:31:12.070Z,5.50
2023-03-31T07:33:41.692Z,5.50
2023-03-31T07:36:13.368Z,5.51
2023-03-31T07:38:47.210Z,5.56
2023-03-31T07:41:19.082Z,5.63
2023-03-31T07:43:49.026Z,5.66
2023-03-31T07:46:26.519Z,5.71
2023-03-31T07:48:59.108Z,5.81
2023-03-31T07:51:28.393Z,5.86
2023-03-31T07:53:57.082Z,5.92
2023-03-31T07:56:26.582Z,6.01
2023-03-31T07:58:57.710Z,6.10
2023-03-31T08:01:29.178Z,6.22
2023-03-31T08:03:59.298Z,6.33
2023-03-31T08:06:30.267Z,6.39
2023-03-31T08:08:59.748Z,6.40
2023-03-31T08:11:29.412Z,6.41
2023-03-31T08:13:58.596Z,6.35
2023-03-31T08:16:27.393Z,6.29
2023-03-31T08:18:55.901Z,6.19
2023-03-31T08:21:24.836Z,6.05
2023-03-31T08:23:56.076Z,5.97
2023-03-31T08:26:25.835Z,5.93
2023-03-31T08:28:54.500Z,5.94
2023-03-31T08:31:26.729Z,6.08
2023-03-31T08:33:57.689Z,6.25
2023-03-31T08:36:27.815Z,6.33
2023-03-31T08:38:56.361Z,6.36
2023-03-31T08:41:28.298Z,6.39
2023-03-31T08:43:59.310Z,6.51
2023-03-31T08:46:33.838Z,6.55
2023-03-31T08:49:05.000Z,6.71
2023-03-31T08:51:42.439Z,6.91
2023-03-31T08:54:40.403Z,7.12
2023-03-31T08:57:24.505Z,7.41
2023-03-31T08:59:53.073Z,7.74
2023-03-31T09:02:24.756Z,8.09
2023-03-31T09:05:01.149Z,8.36
2023-03-31T09:08:02.787Z,8.47
2023-03-31T09:10:52.334Z,8.55
2023-03-31T09:13:26.688Z,8.72
2023-03-31T09:16:22.947Z,8.83
2023-03-31T09:18:55.643Z,8.77
2023-03-31T09:21:46.143Z,8.75
2023-03-31T09:24:28.647Z,8.74
2023-03-31T09:27:05.516Z,8.61
2023-03-31T09:29:50.576Z,8.48
2023-03-31T09:32:26.122Z,8.40
2023-03-31T09:35:22.375Z,8.42
2023-03-31T09:37:52.990Z,8.45
2023-03-31T09:40:28.207Z,8.49
2023-03-31T09:43:07.319Z,8.60
2023-03-31T09:45:37.069Z,8.69
2023-03-31T09:48:15.036Z,8.78
2023-03-31T09:51:08.338Z,8.91
2023-03-31T09:53:43.790Z,9.21
2023-03-31T09:56:12.222Z,9.46
2023-03-31T09:58:43.051Z,9.56
2023-03-31T10:01:14.401Z,9.91
2023-03-31T10:03:55.046Z,10.21
2023-03-31T10:06:26.136Z,10.41
2023-03-31T10:09:03.731Z,10.54
2023-03-31T10:11:32.500Z,10.71
2023-03-31T10:14:16.615Z,10.86
2023-03-31T10:16:50.509Z,10.97
2023-03-31T10:19:18.708Z,11.11
2023-03-31T10:21:55.816Z,11.11
2023-03-31T10:24:24.559Z,11.10
2023-03-31T10:26:55.962Z,10.94
2023-03-31T10:29:35.153Z,10.72
2023-03-31T10:32:20.463Z,10.58
2023-03-31T10:34:49.325Z,10.52
2023-03-31T10:37:22.825Z,10.51
2023-03-31T10:40:20.642Z,10.54
2023-03-31T10:43:03.728Z,10.61
2023-03-31T10:45:42.159Z,10.71
2023-03-31T10:48:32.275Z,10.80
2023-03-31T10:51:27.802Z,10.90
2023-03-31T10:54:06.680Z,10.99
2023-03-31T10:56:38.388Z,11.08
2023-03-31T10:59:17.145Z,11.15
2023-03-31T11:02:24.721Z,11.25
2023-03-31T11:05:05.904Z,11.40
2023-03-31T11:08:00.019Z,11.53
2023-03-31T11:10:59.870Z,11.69
2023-03-31T11:13:38.954Z,11.64
2023-03-31T11:16:07.211Z,11.64
2023-03-31T11:18:57.325Z,11.58
2023-03-31T11:21:58.645Z,11.54
2023-03-31T11:24:52.322Z,11.44
2023-03-31T11:27:57.772Z,11.53
2023-03-31T11:30:48.819Z,11.64
2023-03-31T11:33:30.186Z,11.71
2023-03-31T11:36:22.557Z,11.83
2023-03-31T11:39:12.550Z,11.86
2023-03-31T11:41:49.884Z,11.80
2023-03-31T11:44:21.481Z,11.86
2023-03-31T11:46:55.084Z,11.87
2023-03-31T11:49:27.885Z,11.81
2023-03-31T11:52:03.349Z,11.79
2023-03-31T11:54:38.258Z,11.73
2023-03-31T11:57:36.168Z,11.74
2023-03-31T12:00:14.102Z,11.76
2023-03-31T12:02:53.838Z,11.87
2023-03-31T12:05:26.031Z,11.95
2023-03-31T12:08:03.321Z,12.08
2023-03-31T12:10:38.040Z,12.12
2023-03-31T12:13:36.600Z,12.22
2023-03-31T12:16:46.450Z,12.46
2023-03-31T12:19:22.922Z,12.62
2023-03-31T12:21:56.933Z,12.60
2023-03-31T12:24:27.537Z,12.54
2023-03-31T12:27:14.559Z,12.50
2023-03-31T12:29:49.047Z,12.53
2023-03-31T12:32:25.323Z,12.59
2023-03-31T12:35:26.031Z,12.55
2023-03-31T12:38:17.405Z,12.42
2023-03-31T12:41:05.517Z,12.36
2023-03-31T12:43:50.216Z,12.33
2023-03-31T12:46:52.608Z,12.26
2023-03-31T12:49:50.755Z,12.14
2023-03-31T12:52:32.915Z,12.09
2023-03-31T12:55:09.839Z,12.13
2023-03-31T12:57:38.360Z,12.26
2023-03-31T13:00:12.717Z,12.33
2023-03-31T13:02:41.634Z,12.31
2023-03-31T13:05:38.458Z,12.28
2023-03-31T13:08:11.794Z,12.36
2023-03-31T13:11:00.947Z,12.36
2023-03-31T13:13:30.104Z,12.31
2023-03-31T13:16:02.849Z,12.23
2023-03-31T13:18:34.994Z,12.19
2023-03-31T13:21:08.791Z,12.17
2023-03-31T13:23:45.962Z,12.19
2023-03-31T13:26:33.963Z,12.19
2023-03-31T13:29:14.917Z,12.18
2023-03-31T13:32:02.989Z,12.15
2023-03-31T13:34:32.804Z,12.26
2023-03-31T13:37:17.267Z,12.38
2023-03-31T13:40:17.406Z,12.39
2023-03-31T13:43:09.419Z,12.48
2023-03-31T13:45:44.061Z,12.55
2023-03-31T13:48:39.528Z,12.66
2023-03-31T13:51:32.658Z,12.82
2023-03-31T13:54:07.459Z,12.90
2023-03-31T13:56:39.442Z,12.90
2023-03-31T13:59:13.812Z,12.86
2023-03-31T14:01:55.410Z,12.83
2023-03-31T14:04:43.869Z,12.79
2023-03-31T14:07:23.644Z,12.81
2023-03-31T14:09:54.332Z,12.72
2023-03-31T14:12:35.282Z,12.61
2023-03-31T14:15:06.567Z,12.48
2023-03-31T14:17:41.375Z,12.46
2023-03-31T14:20:13.058Z,12.44
2023-03-31T14:23:23.818Z,12.39
2023-03-31T14:26:12.722Z,12.33
2023-03-31T14:28:41.914Z,12.28
2023-03-31T14:31:20.916Z,12.21
2023-03-31T14:34:37.239Z,12.12
2023-03-31T14:37:23.246Z,12.00
2023-03-31T14:39:56.866Z,11.90
2023-03-31T14:42:30.796Z,11.78
2023-03-31T14:45:04.897Z,11.68
2023-03-31T14:47:33.851Z,11.62
2023-03-31T14:50:15.787Z,11.56
2023-03-31T14:52:50.618Z,11.50
2023-03-31T14:55:28.475Z,11.50
2023-03-31T14:58:02.714Z,11.54
2023-03-31T15:00:34.592Z,11.60
2023-03-31T15:03:08.889Z,11.65
2023-03-31T15:05:38.957Z,11.69
2023-03-31T15:08:20.020Z,11.74
2023-03-31T15:11:09.623Z,11.81
2023-03-31T15:14:01.168Z,11.81
2023-03-31T15:16:43.351Z,11.76
2023-03-31T15:19:16.612Z,11.68
2023-03-31T15:21:47.089Z,11.61
2023-03-31T15:24:16.658Z,11.51
2023-03-31T15:26:53.439Z,11.50
2023-03-31T15:29:31.330Z,11.54
2023-03-31T15:32:00.986Z,11.56
2023-03-31T15:34:36.266Z,11.57
2023-03-31T15:37:07.144Z,11.53
2023-03-31T15:39:38.986Z,11.47
2023-03-31T15:42:08.822Z,11.43
2023-03-31T15:44:43.314Z,11.40
2023-03-31T15:47:29.706Z,11.36
2023-03-31T15:50:08.551Z,11.33
2023-03-31T15:52:41.280Z,11.31
2023-03-31T15:55:32.293Z,11.28
2023-03-31T15:58:02.829Z,11.21
2023-03-31T16:00:39.157Z,11.15
2023-03-31T16:03:22.179Z,11.11
2023-03-31T16:06:10.109Z,11.05
2023-03-31T16:08:48.110Z,10.92
2023-03-31T16:11:23.943Z,10.79
2023-03-31T16:13:57.131Z,10.67
2023-03-31T16:16:29.266Z,10.55
2023-03-31T16:19:10.445Z,10.44
2023-03-31T16:21:45.951Z,10.31
2023-03-31T16:24:16.373Z,10.21
2023-03-31T16:26:46.002Z,10.12
2023-03-31T16:29:23.990Z,10.07
2023-03-31T16:32:11.816Z,10.04
2023-03-31T16:35:02.722Z,10.02
2023-03-31T16:37:31.451Z,10.00
2023-03-31T16:40:00.969Z,9.98
2023-03-31T16:42:31.777Z,9.95
2023-03-31T16:45:13.749Z,9.95
2023-03-31T16:47:45.465Z,9.94
2023-03-31T16:50:16.062Z,9.90
2023-03-31T16:52:45.959Z,9.86
2023-03-31T16:55:16.962Z,9.85
2023-03-31T16:57:46.474Z,9.82
2023-03-31T17:00:15.137Z,9.79
2023-03-31T17:02:43.926Z,9.74
2023-03-31T17:05:13.834Z,9.68
2023-03-31T17:07:42.995Z,9.63
2023-03-31T17:10:13.044Z,9.55
2023-03-31T17:12:41.726Z,9.45
2023-03-31T17:15:10.937Z,9.36
2023-03-31T17:17:39.394Z,9.27
2023-03-31T17:20:09.504Z,9.18
2023-03-31T17:22:38.705Z,9.10
2023-03-31T17:25:08.516Z,9.03
2023-03-31T17:27:36.666Z,8.97
2023-03-31T17:30:06.373Z,8.90
2023-03-31T17:32:34.932Z,8.81
2023-03-31T17:35:04.015Z,8.74
2023-03-31T17:37:33.689Z,8.66
2023-03-31T17:40:02.109Z,8.59
2023-03-31T17:42:31.619Z,8.53
2023-03-31T17:44:59.912Z,8.46
2023-03-31T17:47:30.726Z,8.39
2023-03-31T17:49:59.154Z,8.34
2023-03-31T17:52:28.068Z,8.31
2023-03-31T17:54:58.235Z,8.27
2023-03-31T17:57:26.760Z,8.28
2023-03-31T17:59:54.981Z,8.26
2023-03-31T18:02:25.142Z,8.22
2023-03-31T18:04:54.866Z,8.17
2023-03-31T18:07:25.856Z,8.13
2023-03-31T18:09:53.926Z,8.08
2023-03-31T18:12:23.332Z,8.03
2023-03-31T18:14:52.211Z,7.99
2023-03-31T18:17:20.490Z,7.95
2023-03-31T18:19:48.743Z,7.91
2023-03-31T18:22:16.976Z,7.88
2023-03-31T18:24:45.841Z,7.85
2023-03-31T18:27:14.011Z,7.82
2023-03-31T18:29:42.251Z,7.81
2023-03-31T18:32:10.453Z,7.79
2023-03-31T18:34:38.756Z,7.78
2023-03-31T18:37:07.184Z,7.75
2023-03-31T18:39:35.768Z,7.71
2023-03-31T18:42:04.324Z,7.67
2023-03-31T18:44:32.863Z,7.61
2023-03-31T18:47:02.351Z,7.57
2023-03-31T18:49:32.227Z,7.56
2023-03-31T18:52:02.636Z,7.56
2023-03-31T18:54:31.413Z,7.54
2023-03-31T18:57:01.797Z,7.54
2023-03-31T18:59:30.302Z,7.53
2023-03-31T19:01:58.590Z,7.51
2023-03-31T19:04:27.685Z,7.49
2023-03-31T19:06:57.337Z,7.49
2023-03-31T19:09:28.157Z,7.48
2023-03-31T19:11:57.771Z,7.50
2023-03-31T19:14:27.386Z,7.51
2023-03-31T19:16:55.678Z,7.52
2023-03-31T19:19:25.835Z,7.54
2023-03-31T19:21:54.585Z,7.58
2023-03-31T19:24:24.416Z,7.62
2023-03-31T19:26:53.232Z,7.65
2023-03-31T19:29:21.493Z,7.66
2023-03-31T19:31:49.822Z,7.65
2023-03-31T19:34:18.181Z,7.67
2023-03-31T19:36:46.539Z,7.68
2023-03-31T19:39:14.808Z,7.69
2023-03-31T19:41:43.329Z,7.71
2023-03-31T19:44:11.733Z,7.75
2023-03-31T19:46:40.097Z,7.81
2023-03-31T19:49:08.208Z,7.86
2023-03-31T19:51:36.676Z,7.91
2023-03-31T19:54:04.849Z,7.95
2023-03-31T19:56:33.733Z,8.00
2023-03-31T19:59:02.945Z,8.05
2023-03-31T20:01:32.832Z,8.09
2023-03-31T20:04:01.588Z,8.14
2023-03-31T20:06:32.003Z,8.19
2023-03-31T20:09:01.868Z,8.26
2023-03-31T20:11:31.145Z,8.34
2023-03-31T20:13:59.737Z,8.41
2023-03-31T20:16:29.923Z,8.49
2023-03-31T20:19:01.600Z,8.56
2023-03-31T20:21:32.174Z,8.54
2023-03-31T20:24:00.442Z,8.54
2023-03-31T20:26:30.926Z,8.53
2023-03-31T20:29:02.755Z,8.55
2023-03-31T20:31:34.266Z,8.59
2023-03-31T20:34:02.587Z,8.63
2023-03-31T20:36:32.107Z,8.66
2023-03-31T20:39:04.312Z,8.70
2023-03-31T20:41:34.914Z,8.77
2023-03-31T20:44:05.063Z,8.83
2023-03-31T20:46:34.827Z,8.90
2023-03-31T20:49:03.285Z,8.94
2023-03-31T20:51:33.801Z,8.95
2023-03-31T20:54:02.059Z,8.94
2023-03-31T20:56:33.678Z,8.91
2023-03-31T20:59:02.168Z,8.90
2023-03-31T21:01:33.470Z,8.89
2023-03-31T21:04:03.227Z,8.87
2023-03-31T21:06:46.206Z,8.86
2023-03-31T21:09:15.655Z,8.84
2023-03-31T21:11:44.352Z,8.84
2023-03-31T21:14:16.992Z,8.86
2023-03-31T21:16:45.401Z,8.87
2023-03-31T21:19:13.840Z,8.88
2023-03-31T21:21:43.349Z,8.88
2023-03-31T21:24:13.475Z,8.90
2023-03-31T21:26:42.281Z,8.89
2023-03-31T21:29:10.421Z,8.87
2023-03-31T21:31:39.054Z,8.86
2023-03-31T21:34:07.388Z,8.85
2023-03-31T21:36:35.703Z,8.84
2023-03-31T21:39:05.258Z,8.84
2023-03-31T21:41:33.435Z,8.82
2023-03-31T21:44:02.806Z,8.81
2023-03-31T21:46:33.540Z,8.82
2023-03-31T21:49:02.941Z,8.82
2023-03-31T21:51:31.756Z,8.80
2023-03-31T21:53:59.815Z,8.77
2023-03-31T21:56:28.535Z,8.77
2023-03-31T21:59:01.584Z,8.78
2023-03-31T22:01:31.557Z,8.78
2023-03-31T22:04:00.570Z,8.78
2023-03-31T22:06:29.108Z,8.77
2023-03-31T22:08:57.162Z,8.77
2023-03-31T22:11:25.260Z,8.75
2023-03-31T22:13:53.510Z,8.73
2023-03-31T22:16:23.644Z,8.69
2023-03-31T22:18:53.009Z,8.66
2023-03-31T22:21:24.876Z,8.65
2023-03-31T22:23:56.077Z,8.64
2023-03-31T22:26:26.236Z,8.63
2023-03-31T22:28:55.111Z,8.63
2023-03-31T22:31:23.773Z,8.62
2023-03-31T22:33:53.285Z,8.62
2023-03-31T22:36:21.374Z,8.61
2023-03-31T22:38:49.518Z,8.61
2023-03-31T22:41:17.747Z,8.59
2023-03-31T22:43:46.406Z,8.54
2023-03-31T22:46:16.035Z,8.49
2023-03-31T22:48:48.878Z,8.47
2023-03-31T22:51:17.585Z,8.46
2023-03-31T22:53:53.008Z,8.43
2023-03-31T22:56:23.299Z,8.40
2023-03-31T22:58:52.553Z,8.36
2023-03-31T23:01:21.779Z,8.29
2023-03-31T23:03:50.534Z,8.25
2023-03-31T23:06:18.704Z,8.21
2023-03-31T23:08:49.155Z,8.20
2023-03-31T23:11:18.968Z,8.21
2023-03-31T23:13:47.638Z,8.21
2023-03-31T23:16:27.426Z,8.21
2023-03-31T23:18:56.115Z,8.23
2023-03-31T23:21:27.415Z,8.24
2023-03-31T23:23:58.799Z,8.26
2023-03-31T23:26:28.184Z,8.24
2023-03-31T23:28:57.905Z,8.23
2023-03-31T23:31:29.220Z,8.18
2023-03-31T23:33:59.323Z,8.14
2023-03-31T23:36:27.576Z,8.08
2023-03-31T23:38:56.776Z,8.01
2023-03-31T23:41:26.559Z,7.96
2023-03-31T23:43:58.205Z,7.90
2023-03-31T23:46:27.385Z,7.85
2023-03-31T23:48:55.922Z,7.82
2023-03-31T23:51:24.515Z,7.80
2023-03-31T23:53:53.150Z,7.79
2023-03-31T23:56:21.893Z,7.73
2023-03-31T23:58:50.121Z,7.69
